메인 페이지
METAR-TAF:

METAR-TAF

공항 :

쿠리치바, 파라나, 브라질

위도: 25-26S, 경도: 049-16W, 고도: 924m

현재 날씨관측

예보는 1 시간 29분 전, 00:00시(UTC)에 발표되었습니다.
여러 방향의 바람 5kt
온도 23°C
습도 73%
기압 1014 hPa
시정 10km 이상
고도 4000ft 상공 구름 조금
고도 10000ft 상공 구름 보통

METAR: SBBI 030000Z VRB05KT 9999 FEW040 SCT100 23/18 Q1014

시각: 22:29 (01:29 UTC)

예보

예보는 4 시간 29분 전, 21:00시(UTC)에 발표되었습니다.
예보 대상 시간: 03일 00시부터 03일 12시까지 (UTC)
북동5kt
시정 10km 이상
고도 700ft 상공 구름 보통
전환 중
03일 01시부터 03일 03시까지 (UTC)
고도 700ft 상공 구름 많음
전환 중
03일 10시부터 03일 12시까지 (UTC)
서북서5kt
고도 1200ft 상공 구름 보통

TAF: SBBI 022100Z 0300/0312 04005KT 9999 SCT007 TX21/0300Z TN17/0308Z BECMG 0301/0303 BKN007 BECMG 0310/0312 30005KT SCT012 RMK PEW

4,000개 이상의 공항 관측 자료 및 예보 (METAR 및 TAF 보고).

지도상에서 검색 가능한 기상관측소가 노란 점과 빨간 점으로 표시되어 있습니다.

기상관측소 명을 보려면 표시 위로 마우스를 이동하세요.

날씨 관측과 예보를 보려면 클릭하세요.

지도 변경 : 확대하려면 엑스 표시가 있는 녹색 버튼, 축소하려면 빼기 표시가 있는 녹색 버튼, 다음 페이지의 지도를 보려면 녹색 화살표를 클릭하세요.


METAR-TAF: